Time;durP1;ratioP1;P1;durP2;ratioP2;P2;SDS_P1;SDS_P2;PMS_P1;PMS_P2;Temp;Humidity;BMP_temperature;BMP_pressure;BME280_temperature;BME280_humidity;BME280_pressure;Samples;Min_cycle;Max_cycle;Signal;HPM_P1;HPM_P2
2023/06/12 00:03:27;;;;;;;;;;;;;;;16.32;100.00;97415.03;18559282;31;19990;-52
2023/06/12 00:13:30;;;;;;;;;;;;;;;16.07;100.00;97409.13;18565344;32;19993;-55
2023/06/12 00:23:33;;;;;;;;;;;;;;;15.88;100.00;97403.88;18570456;32;20003;-54
2023/06/12 00:33:36;;;;;;;;;;;;;;;15.69;100.00;97415.75;18570024;32;20000;-54
2023/06/12 00:43:39;;;;;;;;;;;;;;;15.45;100.00;97416.03;18569117;32;19964;-52
2023/06/12 00:53:42;;;;;;;;;;;;;;;15.20;100.00;97410.06;18554623;32;19948;-54
2023/06/12 01:03:45;;;;;;;;;;;;;;;14.98;100.00;97412.72;18567870;32;19975;-52
2023/06/12 01:13:53;;;;;;;;;;;;;;;14.79;100.00;97404.72;18554111;32;20340;-53
2023/06/12 01:24:14;;;;;;;;;;;;;;;14.57;100.00;97398.81;18566008;32;19953;-50
2023/06/12 01:34:20;;;;;;;;;;;;;;;14.40;100.00;97393.16;18566437;32;19985;-53
2023/06/12 01:44:22;;;;;;;;;;;;;;;14.24;100.00;97382.59;18500532;32;20291;-54
2023/06/12 01:54:25;;;;;;;;;;;;;;;14.08;100.00;97392.16;18499901;32;20389;-50
2023/06/12 02:04:28;;;;;;;;;;;;;;;13.91;100.00;97403.59;18499411;32;20059;-54
2023/06/12 02:14:31;;;;;;;;;;;;;;;13.80;100.00;97397.53;18498653;32;19965;-52
2023/06/12 02:24:33;;;;;;;;;;;;;;;13.65;100.00;97392.31;18498108;32;19953;-53
2023/06/12 02:34:36;;;;;;;;;;;;;;;13.51;100.00;97406.69;18499345;32;19967;-54
2023/06/12 02:44:39;;;;;;;;;;;;;;;13.38;100.00;97418.28;18562096;32;20324;-55
2023/06/12 02:54:42;;;;;;;;;;;;;;;13.26;100.00;97407.81;18547684;32;20261;-54
2023/06/12 03:04:45;;;;;;;;;;;;;;;13.14;100.00;97410.19;18561406;32;19953;-52
2023/06/12 03:14:50;;;;;;;;;;;;;;;13.02;100.00;97411.41;18560976;32;19965;-55
2023/06/12 03:24:53;;;;;;;;;;;;;;;12.91;100.00;97409.97;18560605;32;20313;-54
2023/06/12 03:34:56;;;;;;;;;;;;;;;12.81;100.00;97424.47;18545783;32;19979;-53
2023/06/12 03:44:58;;;;;;;;;;;;;;;12.73;100.00;97427.00;18562175;32;19975;-55
2023/06/12 03:55:02;;;;;;;;;;;;;;;12.64;100.00;97434.97;18572582;32;19944;-55
2023/06/12 04:05:04;;;;;;;;;;;;;;;12.57;100.00;97440.75;18571791;32;20308;-54
2023/06/12 04:15:07;;;;;;;;;;;;;;;12.57;100.00;97448.88;18571271;32;19957;-54
2023/06/12 04:25:11;;;;;;;;;;;;;;;12.69;100.00;97451.19;18556319;32;20260;-54
2023/06/12 04:35:17;;;;;;;;;;;;;;;12.82;100.00;97455.91;18567597;31;19971;-53
2023/06/12 04:45:21;;;;;;;;;;;;;;;13.06;100.00;97455.09;18569300;32;19997;-50
2023/06/12 04:55:29;;;;;;;;;;;;;;;13.34;100.00;97455.25;18567954;32;19968;-53
2023/06/12 05:05:31;;;;;;;;;;;;;;;13.63;100.00;97452.38;18568187;32;20344;-54
2023/06/12 05:15:34;;;;;;;;;;;;;;;13.95;100.00;97461.69;18567411;32;19969;-54
2023/06/12 05:25:37;;;;;;;;;;;;;;;14.24;100.00;97466.91;18566606;31;20359;-53
2023/06/12 05:35:39;;;;;;;;;;;;;;;14.64;100.00;97471.13;18565800;32;19971;-52
2023/06/12 05:45:42;;;;;;;;;;;;;;;15.02;100.00;97471.72;18525633;32;20268;-54
2023/06/12 05:55:47;;;;;;;;;;;;;;;15.48;100.00;97463.66;18565045;32;20026;-55
2023/06/12 06:05:50;;;;;;;;;;;;;;;16.00;100.00;97471.47;18549827;32;19982;-51
2023/06/12 06:15:53;;;;;;;;;;;;;;;16.55;100.00;97471.19;18563420;32;19969;-53
2023/06/12 06:25:56;;;;;;;;;;;;;;;17.22;100.00;97484.91;18548612;32;19991;-55
2023/06/12 06:35:59;;;;;;;;;;;;;;;17.92;100.00;97476.78;18562211;32;20082;-54
2023/06/12 06:46:02;;;;;;;;;;;;;;;18.53;100.00;97487.63;18548433;32;19968;-55
2023/06/12 06:56:07;;;;;;;;;;;;;;;19.18;100.00;97490.28;18548203;32;20261;-56
2023/06/12 07:06:10;;;;;;;;;;;;;;;19.74;100.00;97490.06;18561056;32;19971;-55
2023/06/12 07:16:14;;;;;;;;;;;;;;;20.28;96.89;97492.06;18560891;31;20024;-56
2023/06/12 07:26:18;;;;;;;;;;;;;;;20.74;92.76;97499.50;18571639;32;19944;-56
2023/06/12 07:36:35;;;;;;;;;;;;;;;21.15;92.46;97495.75;18573051;31;20007;-56
2023/06/12 07:46:38;;;;;;;;;;;;;;;21.53;89.06;97504.81;18559726;32;19998;-56
2023/06/12 07:56:42;;;;;;;;;;;;;;;21.90;83.69;97501.16;18572309;32;19971;-56
2023/06/12 08:06:47;;;;;;;;;;;;;;;22.14;77.80;97489.25;18571847;32;20284;-53
2023/06/12 08:16:52;;;;;;;;;;;;;;;22.51;78.22;97480.84;18556831;32;19953;-56
2023/06/12 08:26:58;;;;;;;;;;;;;;;22.79;67.03;97477.19;18570618;32;19997;-56
2023/06/12 08:37:01;;;;;;;;;;;;;;;22.95;64.14;97475.22;18569401;31;20016;-56
2023/06/12 08:47:04;;;;;;;;;;;;;;;23.24;56.63;97477.91;18569184;32;19968;-56
2023/06/12 08:57:08;;;;;;;;;;;;;;;23.42;59.46;97475.56;18568577;32;19993;-56
2023/06/12 09:07:12;;;;;;;;;;;;;;;23.72;57.48;97472.25;18567947;32;19965;-56
2023/06/12 09:17:15;;;;;;;;;;;;;;;24.13;52.21;97473.56;18553936;32;19949;-55
2023/06/12 09:27:21;;;;;;;;;;;;;;;24.39;50.33;97474.00;18566706;32;19979;-56
2023/06/12 09:37:26;;;;;;;;;;;;;;;24.72;51.38;97462.37;18566016;31;19965;-56
2023/06/12 09:47:29;;;;;;;;;;;;;;;25.13;54.10;97456.31;18565305;32;19997;-56
2023/06/12 09:57:35;;;;;;;;;;;;;;;25.40;49.61;97451.59;18564719;31;19964;-55
2023/06/12 10:07:41;;;;;;;;;;;;;;;25.56;47.42;97451.44;18550529;32;19965;-56
2023/06/12 10:17:45;;;;;;;;;;;;;;;26.02;46.07;97454.03;18563908;32;19948;-54
2023/06/12 10:27:48;;;;;;;;;;;;;;;26.39;49.25;97452.44;18548552;32;20032;-56
2023/06/12 10:37:52;;;;;;;;;;;;;;;26.95;49.91;97439.47;18548446;31;19959;-57
2023/06/12 10:48:08;;;;;;;;;;;;;;;27.34;47.63;97433.41;18548174;32;20337;-56
2023/06/12 10:58:20;;;;;;;;;;;;;;;26.91;46.10;97416.47;18562000;32;19953;-57
2023/06/12 11:08:26;;;;;;;;;;;;;;;27.73;48.77;97412.59;18561286;32;20348;-56
2023/06/12 11:18:29;;;;;;;;;;;;;;;28.17;43.68;97391.31;18546744;32;19949;-56
2023/06/12 11:28:32;;;;;;;;;;;;;;;28.27;41.92;97390.53;18560531;32;19956;-56
2023/06/12 11:38:35;;;;;;;;;;;;;;;28.85;40.53;97380.25;18546312;31;19960;-56
2023/06/12 11:48:41;;;;;;;;;;;;;;;29.26;40.82;97373.47;18559769;31;19948;-56
2023/06/12 11:58:47;;;;;;;;;;;;;;;29.51;35.34;97372.56;18560292;32;19956;-56
2023/06/12 12:08:55;;;;;;;;;;;;;;;29.96;36.99;97358.84;18550836;32;19995;-56
2023/06/12 12:19:14;;;;;;;;;;;;;;;30.41;38.78;97347.00;18571048;32;19952;-56
2023/06/12 12:29:22;;;;;;;;;;;;;;;31.05;34.80;97342.06;18570347;32;19960;-56
2023/06/12 12:39:25;;;;;;;;;;;;;;;31.43;31.86;97323.25;18569270;31;19957;-57
2023/06/12 12:49:30;;;;;;;;;;;;;;;31.64;33.43;97321.44;18568835;32;19957;-57
2023/06/12 12:59:49;;;;;;;;;;;;;;;32.22;33.22;97312.22;18556773;32;20358;-58
2023/06/12 13:09:52;;;;;;;;;;;;;;;32.72;34.93;97300.22;18567758;32;19967;-57
2023/06/12 13:19:55;;;;;;;;;;;;;;;33.33;31.65;97298.28;18566415;32;19953;-56
2023/06/12 13:29:59;;;;;;;;;;;;;;;33.81;28.79;97278.47;18551905;32;20280;-57
2023/06/12 13:40:04;;;;;;;;;;;;;;;34.06;29.80;97267.44;18550617;32;20358;-57
2023/06/12 13:50:10;;;;;;;;;;;;;;;34.20;29.04;97269.09;18565680;32;19953;-57
2023/06/12 14:00:15;;;;;;;;;;;;;;;34.69;30.66;97257.06;18551321;32;20366;-58
2023/06/12 14:10:18;;;;;;;;;;;;;;;35.07;28.13;97250.03;18564168;32;20284;-58
2023/06/12 14:20:30;;;;;;;;;;;;;;;35.35;26.53;97239.22;18549455;32;20444;-58
2023/06/12 14:30:34;;;;;;;;;;;;;;;35.73;28.25;97233.63;18562705;32;19968;-58
2023/06/12 14:40:38;;;;;;;;;;;;;;;35.20;29.16;97227.59;18548465;32;19967;-58
2023/06/12 14:50:41;;;;;;;;;;;;;;;35.57;26.35;97205.63;18562084;32;20394;-58
2023/06/12 15:00:44;;;;;;;;;;;;;;;35.29;24.86;97194.00;18534470;32;20253;-57
2023/06/12 15:10:49;;;;;;;;;;;;;;;32.66;28.32;97181.56;18561314;32;19959;-56
2023/06/12 15:20:53;;;;;;;;;;;;;;;31.89;28.26;97163.75;18560946;32;19965;-57
2023/06/12 15:30:56;;;;;;;;;;;;;;;31.36;30.00;97158.56;18560426;32;19983;-57
2023/06/12 15:41:00;;;;;;;;;;;;;;;31.17;30.26;97154.44;18548509;32;20321;-56
2023/06/12 15:51:05;;;;;;;;;;;;;;;30.41;30.38;97149.75;18572786;32;20008;-56
2023/06/12 16:01:08;;;;;;;;;;;;;;;30.30;32.36;97143.50;18557812;32;19961;-55
2023/06/12 16:11:11;;;;;;;;;;;;;;;30.09;35.10;97144.50;18571617;32;19964;-55
2023/06/12 16:21:14;;;;;;;;;;;;;;;30.08;33.13;97138.13;18556918;31;19971;-55
2023/06/12 16:31:21;;;;;;;;;;;;;;;29.84;31.18;97130.78;18570708;32;20020;-55
2023/06/12 16:41:26;;;;;;;;;;;;;;;29.17;33.18;97131.62;18567266;32;19968;-55
2023/06/12 16:51:30;;;;;;;;;;;;;;;28.49;35.27;97126.38;18565437;32;20265;-53
2023/06/12 17:01:33;;;;;;;;;;;;;;;27.93;32.29;97118.56;18565044;32;19971;-55
2023/06/12 17:11:36;;;;;;;;;;;;;;;27.31;35.61;97101.09;18550553;32;19956;-52
2023/06/12 17:21:39;;;;;;;;;;;;;;;26.71;37.05;97097.78;18564110;31;20310;-54
2023/06/12 17:31:43;;;;;;;;;;;;;;;26.15;37.53;97110.19;18563506;32;19975;-53
2023/06/12 17:41:46;;;;;;;;;;;;;;;25.75;36.43;97109.09;18550616;32;19968;-54
2023/06/12 17:51:50;;;;;;;;;;;;;;;25.54;36.20;97119.66;18565658;32;19956;-51
2023/06/12 18:01:54;;;;;;;;;;;;;;;25.40;37.07;97121.50;18564782;32;19944;-51
2023/06/12 18:11:59;;;;;;;;;;;;;;;26.26;36.03;97133.22;18564611;32;19991;-54
2023/06/12 18:22:02;;;;;;;;;;;;;;;27.12;34.72;97143.06;18563479;32;19952;-53
2023/06/12 18:32:06;;;;;;;;;;;;;;;25.87;35.76;97140.06;18549122;32;19975;-52
2023/06/12 18:42:10;;;;;;;;;;;;;;;24.85;39.67;97136.72;18548589;32;20303;-51
2023/06/12 18:52:13;;;;;;;;;;;;;;;24.12;41.26;97139.69;18548063;32;20000;-52
2023/06/12 19:02:17;;;;;;;;;;;;;;;23.45;43.22;97130.75;18561639;32;19968;-52
2023/06/12 19:12:20;;;;;;;;;;;;;;;22.94;45.31;97134.56;18546966;31;20302;-54
2023/06/12 19:22:23;;;;;;;;;;;;;;;22.34;49.01;97148.69;18546336;32;19956;-54
2023/06/12 19:32:26;;;;;;;;;;;;;;;21.73;51.46;97133.53;18560679;32;19941;-52
2023/06/12 19:42:29;;;;;;;;;;;;;;;21.22;55.02;97143.25;18560107;32;19964;-53
2023/06/12 19:52:33;;;;;;;;;;;;;;;20.80;59.07;97150.00;18559808;32;19992;-50
2023/06/12 20:02:36;;;;;;;;;;;;;;;20.39;58.95;97148.38;18559587;31;20348;-50
2023/06/12 20:12:39;;;;;;;;;;;;;;;20.03;64.03;97166.53;18559519;32;20344;-49
2023/06/12 20:22:45;;;;;;;;;;;;;;;19.73;67.40;97180.44;18531935;32;20284;-53
2023/06/12 20:32:48;;;;;;;;;;;;;;;19.43;68.81;97177.91;18567860;32;19960;-52
2023/06/12 20:42:52;;;;;;;;;;;;;;;19.23;71.10;97191.34;18569729;32;19988;-49
2023/06/12 20:52:55;;;;;;;;;;;;;;;19.04;76.44;97196.53;18569268;32;19956;-51
2023/06/12 21:02:58;;;;;;;;;;;;;;;18.77;77.86;97195.94;18568654;32;19989;-51
2023/06/12 21:13:02;;;;;;;;;;;;;;;18.59;80.42;97192.53;18568055;32;20206;-50
2023/06/12 21:23:05;;;;;;;;;;;;;;;18.38;81.38;97190.59;18567413;32;19968;-53
2023/06/12 21:33:07;;;;;;;;;;;;;;;18.18;82.96;97199.59;18567436;32;19952;-54
2023/06/12 21:43:13;;;;;;;;;;;;;;;18.01;88.06;97192.31;18550838;32;19987;-54
2023/06/12 21:53:18;;;;;;;;;;;;;;;17.84;88.99;97185.75;18565921;31;19956;-53
2023/06/12 22:03:23;;;;;;;;;;;;;;;17.68;93.92;97192.88;18565129;32;19965;-51
2023/06/12 22:13:26;;;;;;;;;;;;;;;17.47;94.99;97182.69;18564382;32;19949;-53
2023/06/12 22:23:30;;;;;;;;;;;;;;;17.31;100.00;97184.34;18563876;32;19964;-51
2023/06/12 22:33:33;;;;;;;;;;;;;;;17.10;100.00;97183.13;18562958;32;19956;-54
2023/06/12 22:43:36;;;;;;;;;;;;;;;16.88;96.93;97175.91;18562397;32;19948;-49
2023/06/12 22:53:40;;;;;;;;;;;;;;;16.66;99.45;97176.06;18547786;32;19984;-52
2023/06/12 23:03:43;;;;;;;;;;;;;;;16.46;100.00;97169.31;18561625;32;20023;-50
2023/06/12 23:13:46;;;;;;;;;;;;;;;16.24;100.00;97177.34;18561187;32;19990;-50
2023/06/12 23:23:51;;;;;;;;;;;;;;;16.03;100.00;97160.81;18561062;32;19952;-53
2023/06/12 23:33:56;;;;;;;;;;;;;;;15.81;100.00;97158.16;18561168;32;20297;-53
2023/06/12 23:43:59;;;;;;;;;;;;;;;15.58;100.00;97163.66;18560181;31;19952;-50
2023/06/12 23:54:02;;;;;;;;;;;;;;;15.34;100.00;97159.41;18559988;32;20042;-52
